Time;durP1;ratioP1;P1;durP2;ratioP2;P2;SDS_P1;SDS_P2;PMS_P1;PMS_P2;Temp;Humidity;BMP_temperature;BMP_pressure;BME280_temperature;BME280_humidity;BME280_pressure;Samples;Min_cycle;Max_cycle;Signal;HPM_P1;HPM_P2
2021/07/03 00:00:39;;;;;;;11.17;9.90;;;;;;;;;;5034968;28;20525;-77
2021/07/03 00:03:05;;;;;;;11.90;10.20;;;;;;;;;;5013771;28;20919;-77
2021/07/03 00:05:31;;;;;;;10.70;9.60;;;;;;;;;;5013478;28;20416;-76
2021/07/03 00:07:57;;;;;;;10.80;8.57;;;;;;;;;;5014211;28;20451;-78
2021/07/03 00:10:23;;;;;;;10.43;9.17;;;;;;;;;;5013837;28;20520;-76
2021/07/03 00:12:49;;;;;;;12.27;8.10;;;;;;;;;;5013962;28;20787;-76
2021/07/03 00:15:21;;;;;;;8.83;7.30;;;;;;;;;;5013808;28;20791;-77
2021/07/03 00:17:47;;;;;;;8.60;7.70;;;;;;;;;;5013326;28;20546;-79
2021/07/03 00:20:13;;;;;;;8.33;7.53;;;;;;;;;;5013796;28;20409;-77
2021/07/03 00:22:39;;;;;;;9.67;7.40;;;;;;;;;;5012649;28;20429;-78
2021/07/03 00:25:06;;;;;;;9.93;8.37;;;;;;;;;;5014056;28;20739;-78
2021/07/03 00:27:32;;;;;;;9.67;7.90;;;;;;;;;;5013594;28;20432;-79
2021/07/03 00:29:58;;;;;;;8.90;8.00;;;;;;;;;;5013247;28;20432;-76
2021/07/03 00:32:24;;;;;;;7.90;6.90;;;;;;;;;;5013733;28;20420;-78
2021/07/03 00:34:50;;;;;;;7.40;6.70;;;;;;;;;;5013094;28;20465;-77
2021/07/03 00:37:17;;;;;;;8.33;7.43;;;;;;;;;;5013493;28;20483;-75
2021/07/03 00:39:43;;;;;;;9.63;8.73;;;;;;;;;;5013055;28;20413;-78
2021/07/03 00:42:09;;;;;;;8.87;8.00;;;;;;;;;;5013285;28;20483;-76
2021/07/03 00:44:38;;;;;;;10.27;8.10;;;;;;;;;;5011970;28;20708;-78
2021/07/03 00:47:06;;;;;;;9.43;8.20;;;;;;;;;;5013314;28;20475;-78
2021/07/03 00:49:36;;;;;;;10.73;8.37;;;;;;;;;;5013122;28;20437;-77
2021/07/03 00:52:03;;;;;;;9.07;8.00;;;;;;;;;;5012251;28;20497;-78
2021/07/03 00:54:29;;;;;;;8.60;7.80;;;;;;;;;;5011735;28;20903;-75
2021/07/03 00:57:02;;;;;;;8.63;7.60;;;;;;;;;;5012758;28;20554;-77
2021/07/03 00:59:32;;;;;;;8.80;7.90;;;;;;;;;;5013056;28;20421;-77
2021/07/03 01:01:58;;;;;;;9.53;7.40;;;;;;;;;;5013037;28;20854;-77
2021/07/03 01:04:24;;;;;;;11.37;8.00;;;;;;;;;;5014756;28;20742;-78
2021/07/03 01:06:50;;;;;;;10.80;7.60;;;;;;;;;;5016718;28;20829;-81
2021/07/03 01:09:16;;;;;;;8.87;7.97;;;;;;;;;;5017019;28;20413;-78
2021/07/03 01:11:42;;;;;;;10.13;8.80;;;;;;;;;;5016914;28;20453;-79
2021/07/03 01:14:08;;;;;;;9.33;7.67;;;;;;;;;;5016745;28;20536;-77
2021/07/03 01:16:34;;;;;;;9.43;8.50;;;;;;;;;;5030653;28;20491;-78
2021/07/03 01:19:00;;;;;;;9.30;8.07;;;;;;;;;;5035057;28;20436;-77
2021/07/03 01:21:28;;;;;;;8.90;6.83;;;;;;;;;;5031442;28;20452;-77
2021/07/03 01:23:54;;;;;;;10.00;8.13;;;;;;;;;;5016734;28;20420;-78
2021/07/03 01:26:23;;;;;;;7.60;6.50;;;;;;;;;;5017029;28;20886;-76
2021/07/03 01:28:49;;;;;;;10.70;7.73;;;;;;;;;;5016252;28;20420;-77
2021/07/03 01:31:15;;;;;;;7.80;7.10;;;;;;;;;;5016835;28;20527;-76
2021/07/03 01:33:41;;;;;;;8.03;7.27;;;;;;;;;;5014855;28;20567;-78
2021/07/03 01:36:07;;;;;;;7.87;7.10;;;;;;;;;;5015577;28;20484;-77
2021/07/03 01:38:33;;;;;;;8.60;7.70;;;;;;;;;;5016353;28;20418;-78
2021/07/03 01:40:59;;;;;;;8.50;7.63;;;;;;;;;;5035661;28;20752;-77
2021/07/03 01:43:26;;;;;;;9.97;7.30;;;;;;;;;;5036002;28;20427;-76
2021/07/03 01:45:53;;;;;;;10.80;7.90;;;;;;;;;;5035916;28;20423;-79
2021/07/03 01:48:39;;;;;;;8.73;7.80;;;;;;;;;;5035990;28;20473;-77
2021/07/03 01:51:05;;;;;;;9.60;8.53;;;;;;;;;;5035731;28;20750;-79
2021/07/03 01:53:31;;;;;;;9.20;8.30;;;;;;;;;;5036139;28;20427;-77
2021/07/03 01:55:57;;;;;;;10.97;8.07;;;;;;;;;;5035904;28;20420;-78
2021/07/03 01:58:24;;;;;;;8.73;6.83;;;;;;;;;;5036042;28;20420;-76
2021/07/03 02:00:55;;;;;;;9.70;8.53;;;;;;;;;;5024765;28;20760;-78
2021/07/03 02:03:24;;;;;;;8.13;7.33;;;;;;;;;;5014266;28;20444;-78
2021/07/03 02:05:50;;;;;;;8.87;6.73;;;;;;;;;;5014262;28;20788;-76
2021/07/03 02:08:16;;;;;;;8.80;7.83;;;;;;;;;;5015864;28;20433;-77
2021/07/03 02:10:43;;;;;;;8.03;7.20;;;;;;;;;;5016112;28;20420;-78
2021/07/03 02:13:09;;;;;;;11.23;7.37;;;;;;;;;;5015785;28;20424;-78
2021/07/03 02:15:35;;;;;;;8.07;7.20;;;;;;;;;;5021680;28;20514;-77
2021/07/03 02:18:02;;;;;;;8.27;7.47;;;;;;;;;;5034757;28;20479;-77
2021/07/03 02:20:28;;;;;;;11.17;8.07;;;;;;;;;;5033517;28;20462;-79
2021/07/03 02:22:54;;;;;;;10.10;8.30;;;;;;;;;;5035586;28;20810;-77
2021/07/03 02:25:21;;;;;;;8.97;7.73;;;;;;;;;;5035647;28;20811;-77
2021/07/03 02:27:49;;;;;;;9.07;8.20;;;;;;;;;;5035219;28;20416;-78
2021/07/03 02:30:16;;;;;;;12.03;7.40;;;;;;;;;;5035138;28;20535;-76
2021/07/03 02:32:42;;;;;;;8.10;7.20;;;;;;;;;;5033880;28;20428;-77
2021/07/03 02:35:09;;;;;;;9.80;7.90;;;;;;;;;;5032880;28;20850;-77
2021/07/03 02:37:36;;;;;;;9.63;8.03;;;;;;;;;;5035294;28;20479;-77
2021/07/03 02:40:04;;;;;;;11.00;7.80;;;;;;;;;;5035210;28;20408;-77
2021/07/03 02:42:30;;;;;;;11.40;8.97;;;;;;;;;;5034865;28;20455;-77
2021/07/03 02:44:56;;;;;;;9.17;8.27;;;;;;;;;;5034761;28;20911;-75
2021/07/03 02:47:22;;;;;;;9.50;8.60;;;;;;;;;;5034378;28;20412;-76
2021/07/03 02:49:48;;;;;;;8.90;8.03;;;;;;;;;;5025983;28;20436;-78
2021/07/03 02:52:14;;;;;;;10.53;8.37;;;;;;;;;;5015040;28;20413;-76
2021/07/03 02:54:40;;;;;;;12.37;8.50;;;;;;;;;;5014848;28;20771;-78
2021/07/03 02:57:06;;;;;;;11.30;7.67;;;;;;;;;;5014690;28;20851;-78
2021/07/03 02:59:32;;;;;;;10.37;8.13;;;;;;;;;;5013319;28;20425;-77
2021/07/03 03:01:58;;;;;;;8.73;7.83;;;;;;;;;;5014955;28;20576;-77
2021/07/03 03:04:24;;;;;;;10.30;7.70;;;;;;;;;;5014786;28;20460;-77
2021/07/03 03:06:50;;;;;;;9.73;8.70;;;;;;;;;;5014446;28;20443;-76
2021/07/03 03:09:16;;;;;;;9.40;7.90;;;;;;;;;;5014460;28;20471;-78
2021/07/03 03:11:42;;;;;;;10.10;9.00;;;;;;;;;;5014693;28;20429;-77
2021/07/03 03:14:08;;;;;;;9.90;8.90;;;;;;;;;;5013342;28;20425;-79
2021/07/03 03:16:34;;;;;;;9.87;8.70;;;;;;;;;;5029553;28;20471;-77
2021/07/03 03:19:00;;;;;;;11.23;8.67;;;;;;;;;;5034406;28;20557;-79
2021/07/03 03:21:26;;;;;;;10.97;9.40;;;;;;;;;;5029150;28;20440;-77
2021/07/03 03:23:52;;;;;;;10.33;8.80;;;;;;;;;;5014485;28;20463;-77
2021/07/03 03:26:18;;;;;;;8.80;7.90;;;;;;;;;;5014502;28;20468;-77
2021/07/03 03:28:45;;;;;;;11.27;8.40;;;;;;;;;;5013079;28;20924;-78
2021/07/03 03:31:11;;;;;;;8.93;7.80;;;;;;;;;;5016254;28;20824;-79
2021/07/03 03:33:37;;;;;;;16.97;8.93;;;;;;;;;;5033648;28;20428;-78
2021/07/03 03:36:03;;;;;;;10.47;7.87;;;;;;;;;;5033234;28;20479;-77
2021/07/03 03:38:30;;;;;;;11.17;8.50;;;;;;;;;;5033922;28;20447;-76
2021/07/03 03:40:59;;;;;;;10.33;7.27;;;;;;;;;;5033627;28;20495;-77
2021/07/03 03:43:25;;;;;;;11.00;8.40;;;;;;;;;;5033750;28;20416;-78
2021/07/03 03:45:51;;;;;;;9.83;7.83;;;;;;;;;;5033366;28;20838;-77
2021/07/03 03:48:18;;;;;;;10.33;8.47;;;;;;;;;;5033479;28;20419;-78
2021/07/03 03:50:44;;;;;;;10.37;7.80;;;;;;;;;;5033050;28;20444;-78
2021/07/03 03:53:10;;;;;;;9.70;8.03;;;;;;;;;;5033309;28;20444;-77
2021/07/03 03:55:38;;;;;;;9.10;8.20;;;;;;;;;;5033432;28;20404;-78
2021/07/03 03:58:04;;;;;;;10.40;8.83;;;;;;;;;;5033070;28;20467;-78
2021/07/03 04:00:30;;;;;;;10.33;8.53;;;;;;;;;;5033520;28;20515;-76
2021/07/03 04:02:56;;;;;;;9.47;7.87;;;;;;;;;;5033455;28;20416;-78
2021/07/03 04:05:22;;;;;;;11.90;8.50;;;;;;;;;;5033091;28;20763;-78
2021/07/03 04:07:48;;;;;;;9.43;8.43;;;;;;;;;;5032199;28;20860;-77
2021/07/03 04:10:15;;;;;;;11.10;8.07;;;;;;;;;;5032960;28;20755;-77
2021/07/03 04:12:41;;;;;;;9.70;8.40;;;;;;;;;;5013454;28;20413;-77
2021/07/03 04:15:08;;;;;;;8.53;7.60;;;;;;;;;;5016963;28;20858;-79
2021/07/03 04:17:35;;;;;;;7.73;6.93;;;;;;;;;;5032701;28;20570;-78
2021/07/03 04:20:01;;;;;;;9.43;7.90;;;;;;;;;;5032850;28;20503;-76
2021/07/03 04:22:28;;;;;;;10.20;8.47;;;;;;;;;;5033251;28;20423;-77
2021/07/03 04:24:54;;;;;;;8.57;7.67;;;;;;;;;;5033188;28;20416;-78
2021/07/03 04:27:20;;;;;;;9.27;8.07;;;;;;;;;;5031769;28;20772;-75
2021/07/03 04:29:46;;;;;;;11.27;7.80;;;;;;;;;;5033022;28;20416;-77
2021/07/03 04:32:12;;;;;;;10.03;8.50;;;;;;;;;;5031404;28;20436;-78
2021/07/03 04:34:38;;;;;;;8.70;7.80;;;;;;;;;;5031972;28;20529;-78
2021/07/03 04:37:04;;;;;;;9.23;7.70;;;;;;;;;;5033283;28;20530;-78
2021/07/03 04:39:30;;;;;;;9.93;8.53;;;;;;;;;;5032571;28;20416;-78
2021/07/03 04:41:59;;;;;;;10.50;8.07;;;;;;;;;;5032830;28;20918;-75
2021/07/03 04:44:25;;;;;;;11.30;10.10;;;;;;;;;;5032089;28;20463;-78
2021/07/03 04:46:51;;;;;;;11.80;8.67;;;;;;;;;;5032269;28;20871;-79
2021/07/03 04:49:17;;;;;;;9.67;8.67;;;;;;;;;;5028440;28;20436;-79
2021/07/03 04:51:44;;;;;;;9.63;8.73;;;;;;;;;;5012405;28;20425;-79
2021/07/03 04:54:10;;;;;;;9.77;8.77;;;;;;;;;;5012891;28;20421;-78
2021/07/03 04:56:36;;;;;;;9.20;8.27;;;;;;;;;;5013214;28;20817;-78
2021/07/03 04:59:02;;;;;;;10.93;7.53;;;;;;;;;;5011687;28;20425;-77
2021/07/03 05:01:28;;;;;;;8.77;7.43;;;;;;;;;;5006962;28;20460;-79
2021/07/03 05:03:54;;;;;;;9.50;7.70;;;;;;;;;;5012570;28;20449;-78
2021/07/03 05:06:20;;;;;;;8.60;7.70;;;;;;;;;;5012525;28;20440;-78
2021/07/03 05:08:46;;;;;;;8.40;7.47;;;;;;;;;;5012939;28;20428;-77
2021/07/03 05:11:12;;;;;;;9.10;7.90;;;;;;;;;;5012891;28;20523;-78
2021/07/03 05:13:38;;;;;;;8.10;6.90;;;;;;;;;;5027021;28;20447;-79
2021/07/03 05:16:04;;;;;;;11.73;7.30;;;;;;;;;;5032436;28;20423;-76
2021/07/03 05:18:31;;;;;;;7.93;6.60;;;;;;;;;;5032436;28;20431;-78
2021/07/03 05:20:57;;;;;;;7.27;6.57;;;;;;;;;;5032154;28;20420;-77
2021/07/03 05:23:23;;;;;;;7.63;6.93;;;;;;;;;;5032427;28;20424;-76
2021/07/03 05:25:52;;;;;;;7.10;6.33;;;;;;;;;;5032618;28;20938;-77
2021/07/03 05:28:18;;;;;;;8.73;6.90;;;;;;;;;;5032752;28;20452;-83
2021/07/03 05:30:44;;;;;;;10.60;7.60;;;;;;;;;;5033374;28;20427;-79
2021/07/03 05:33:10;;;;;;;7.70;6.57;;;;;;;;;;5032996;28;20988;-80
2021/07/03 05:35:37;;;;;;;9.77;7.07;;;;;;;;;;5031086;28;20566;-77
2021/07/03 05:38:03;;;;;;;8.47;7.57;;;;;;;;;;5031272;28;20475;-75
2021/07/03 05:40:30;;;;;;;7.97;7.27;;;;;;;;;;5031160;28;20428;-77
2021/07/03 05:42:56;;;;;;;7.80;6.90;;;;;;;;;;5032177;28;20474;-80
2021/07/03 05:45:22;;;;;;;9.17;8.27;;;;;;;;;;5033081;28;20420;-80
2021/07/03 05:47:52;;;;;;;11.83;7.87;;;;;;;;;;5032738;28;20841;-78
2021/07/03 05:50:20;;;;;;;11.90;7.60;;;;;;;;;;5033319;28;20489;-75
2021/07/03 05:52:46;;;;;;;13.17;8.33;;;;;;;;;;5034465;28;20523;-79
2021/07/03 05:55:12;;;;;;;8.87;7.30;;;;;;;;;;5036101;28;20424;-78
2021/07/03 05:57:39;;;;;;;10.40;7.67;;;;;;;;;;5035403;28;20804;-79
2021/07/03 06:00:06;;;;;;;8.67;7.73;;;;;;;;;;5035969;28;20416;-81
2021/07/03 06:02:32;;;;;;;8.17;7.20;;;;;;;;;;5020565;28;20445;-75
2021/07/03 06:04:58;;;;;;;10.70;8.30;;;;;;;;;;5015153;28;20412;-77
2021/07/03 06:07:25;;;;;;;9.40;8.33;;;;;;;;;;5015646;28;20425;-79
2021/07/03 06:09:52;;;;;;;7.93;7.17;;;;;;;;;;5015240;28;20432;-76
2021/07/03 06:12:18;;;;;;;9.77;8.20;;;;;;;;;;5015544;28;20424;-75
2021/07/03 06:14:45;;;;;;;9.07;7.30;;;;;;;;;;5016534;28;20424;-77
2021/07/03 06:17:13;;;;;;;9.23;8.30;;;;;;;;;;5035033;28;20478;-77
2021/07/03 06:19:43;;;;;;;9.80;8.90;;;;;;;;;;5034633;28;20420;-77
2021/07/03 06:22:12;;;;;;;10.03;7.70;;;;;;;;;;5034041;28;20463;-76
2021/07/03 06:24:38;;;;;;;13.90;8.77;;;;;;;;;;5035470;28;20653;-76
2021/07/03 06:27:04;;;;;;;9.13;8.03;;;;;;;;;;5035255;28;20428;-78
2021/07/03 06:29:30;;;;;;;13.43;8.73;;;;;;;;;;5035427;28;20766;-76
2021/07/03 06:31:56;;;;;;;11.40;8.30;;;;;;;;;;5035032;28;20427;-76
2021/07/03 06:34:22;;;;;;;10.23;8.53;;;;;;;;;;5034750;28;20528;-76
2021/07/03 06:36:48;;;;;;;8.70;7.83;;;;;;;;;;5034291;28;20463;-77
2021/07/03 06:39:14;;;;;;;11.93;8.20;;;;;;;;;;5034970;28;20428;-75
2021/07/03 06:41:40;;;;;;;9.20;8.30;;;;;;;;;;5033418;28;20420;-76
2021/07/03 06:44:06;;;;;;;10.47;8.10;;;;;;;;;;5033450;28;20551;-75
2021/07/03 06:46:32;;;;;;;8.07;7.37;;;;;;;;;;5034711;28;20420;-77
2021/07/03 06:48:58;;;;;;;8.40;6.80;;;;;;;;;;5033530;28;20424;-76
2021/07/03 06:51:24;;;;;;;16.30;7.63;;;;;;;;;;5014806;28;20769;-77
2021/07/03 06:53:54;;;;;;;9.27;6.90;;;;;;;;;;5014680;28;20409;-77
2021/07/03 06:56:20;;;;;;;8.27;6.20;;;;;;;;;;5014397;28;20472;-75
2021/07/03 06:58:46;;;;;;;7.90;7.10;;;;;;;;;;5014375;28;20424;-74
2021/07/03 07:01:12;;;;;;;7.70;7.00;;;;;;;;;;5014131;28;20918;-75
2021/07/03 07:03:38;;;;;;;7.13;6.53;;;;;;;;;;5014423;28;20433;-74
2021/07/03 07:06:04;;;;;;;7.03;5.97;;;;;;;;;;5014334;28;20425;-75
2021/07/03 07:08:30;;;;;;;8.30;6.67;;;;;;;;;;5014419;28;20530;-76
2021/07/03 07:10:56;;;;;;;6.63;6.03;;;;;;;;;;5013199;28;20543;-75
2021/07/03 07:13:22;;;;;;;7.00;6.40;;;;;;;;;;5011546;28;20528;-75
2021/07/03 07:15:48;;;;;;;6.67;6.00;;;;;;;;;;5017946;28;20447;-75
2021/07/03 07:18:14;;;;;;;9.70;6.20;;;;;;;;;;5032268;28;21005;-76
2021/07/03 07:20:43;;;;;;;7.40;6.70;;;;;;;;;;5026802;28;20440;-74
2021/07/03 07:23:09;;;;;;;9.87;5.90;;;;;;;;;;5012952;28;20420;-74
2021/07/03 07:25:35;;;;;;;6.50;5.93;;;;;;;;;;5013087;28;20416;-74
2021/07/03 07:28:02;;;;;;;5.80;5.30;;;;;;;;;;5013140;28;20472;-74
2021/07/03 07:30:28;;;;;;;5.43;5.00;;;;;;;;;;5012872;28;20421;-77
2021/07/03 07:32:54;;;;;;;6.97;6.27;;;;;;;;;;5012173;28;20433;-76
2021/07/03 07:35:20;;;;;;;6.10;5.50;;;;;;;;;;5012701;28;20495;-76
2021/07/03 07:37:51;;;;;;;6.00;5.20;;;;;;;;;;5015649;28;20997;-76
2021/07/03 07:40:18;;;;;;;6.63;4.73;;;;;;;;;;5029572;28;20427;-74
2021/07/03 07:42:44;;;;;;;6.23;5.63;;;;;;;;;;5031616;28;20498;-75
2021/07/03 07:45:10;;;;;;;6.67;5.93;;;;;;;;;;5026300;28;20874;-75
2021/07/03 07:47:36;;;;;;;6.87;5.50;;;;;;;;;;5031633;28;20431;-74
2021/07/03 07:50:04;;;;;;;5.77;5.17;;;;;;;;;;5031697;28;20419;-73
2021/07/03 07:52:31;;;;;;;6.37;5.30;;;;;;;;;;5024963;28;20471;-75
2021/07/03 07:54:57;;;;;;;6.00;5.40;;;;;;;;;;5012480;28;20750;-75
2021/07/03 07:57:23;;;;;;;5.97;5.40;;;;;;;;;;5010677;28;20484;-74
2021/07/03 07:59:49;;;;;;;6.20;5.70;;;;;;;;;;5011991;28;20904;-75
2021/07/03 08:02:15;;;;;;;6.80;6.10;;;;;;;;;;5012390;28;20421;-76
2021/07/03 08:04:41;;;;;;;7.50;6.20;;;;;;;;;;5038650;28;20579;-76
2021/07/03 08:07:07;;;;;;;5.80;5.30;;;;;;;;;;5043973;28;20425;-76
2021/07/03 08:09:33;;;;;;;7.43;6.40;;;;;;;;;;5012862;28;20448;-75
2021/07/03 08:11:59;;;;;;;6.90;6.20;;;;;;;;;;5012204;28;20464;-75
2021/07/03 08:14:25;;;;;;;7.97;6.17;;;;;;;;;;5011710;28;20452;-75
2021/07/03 08:16:52;;;;;;;7.53;6.93;;;;;;;;;;5011341;28;20475;-76
2021/07/03 08:19:18;;;;;;;6.13;5.60;;;;;;;;;;5028193;28;20432;-74
2021/07/03 08:21:44;;;;;;;6.90;5.80;;;;;;;;;;5031564;28;20510;-75
2021/07/03 08:24:10;;;;;;;6.87;5.90;;;;;;;;;;5032236;28;20416;-74
2021/07/03 08:26:36;;;;;;;6.07;5.27;;;;;;;;;;5023688;28;20915;-77
2021/07/03 08:29:02;;;;;;;7.77;5.57;;;;;;;;;;5026910;28;20467;-76
2021/07/03 08:31:28;;;;;;;9.03;5.77;;;;;;;;;;5011030;28;20512;-75
2021/07/03 08:33:55;;;;;;;7.30;6.50;;;;;;;;;;5010483;28;20436;-76
2021/07/03 08:36:21;;;;;;;8.03;6.70;;;;;;;;;;5009725;28;21117;-75
2021/07/03 08:38:47;;;;;;;7.27;5.60;;;;;;;;;;5011732;28;20424;-76
2021/07/03 08:41:13;;;;;;;6.10;5.50;;;;;;;;;;5011636;28;20401;-75
2021/07/03 08:43:50;;;;;;;6.70;4.93;;;;;;;;;;5011907;28;20428;-75
2021/07/03 08:46:20;;;;;;;6.17;5.40;;;;;;;;;;5011733;28;20408;-76
2021/07/03 08:48:53;;;;;;;5.47;4.97;;;;;;;;;;5011961;28;20791;-75
2021/07/03 08:51:19;;;;;;;6.53;5.93;;;;;;;;;;5010392;28;20412;-76
2021/07/03 08:53:45;;;;;;;5.67;5.10;;;;;;;;;;5015244;28;20432;-78
2021/07/03 08:56:11;;;;;;;6.17;4.70;;;;;;;;;;5012087;28;20471;-76
2021/07/03 08:58:37;;;;;;;5.13;4.63;;;;;;;;;;5011902;28;20443;-75
2021/07/03 09:01:04;;;;;;;5.50;5.00;;;;;;;;;;5012478;28;20962;-77
2021/07/03 09:03:31;;;;;;;5.13;4.70;;;;;;;;;;5012375;28;20436;-76
2021/07/03 09:05:58;;;;;;;5.57;5.00;;;;;;;;;;5011783;28;20416;-77
2021/07/03 09:08:25;;;;;;;5.33;4.50;;;;;;;;;;5014334;28;20448;-78
2021/07/03 09:11:08;;;;;;;7.40;5.90;;;;;;;;;;5012314;28;20426;-78
2021/07/03 09:13:35;;;;;;;5.57;4.97;;;;;;;;;;5012083;28;20416;-76
2021/07/03 09:16:01;;;;;;;5.33;4.57;;;;;;;;;;5012151;28;20444;-75
2021/07/03 09:18:29;;;;;;;5.90;5.23;;;;;;;;;;5012424;28;20931;-76
2021/07/03 09:20:56;;;;;;;4.90;4.40;;;;;;;;;;5011923;28;20423;-76
2021/07/03 09:23:30;;;;;;;7.77;4.90;;;;;;;;;;5011096;28;20595;-75
2021/07/03 09:25:57;;;;;;;5.77;5.17;;;;;;;;;;5014495;28;20412;-76
2021/07/03 09:28:23;;;;;;;11.83;5.70;;;;;;;;;;5015727;28;20413;-76
2021/07/03 09:30:53;;;;;;;5.30;4.80;;;;;;;;;;5015878;28;20439;-77
2021/07/03 09:33:23;;;;;;;5.50;5.00;;;;;;;;;;5017560;28;20490;-74
2021/07/03 09:36:03;;;;;;;5.57;5.07;;;;;;;;;;5015011;28;21021;-75
2021/07/03 09:38:40;;;;;;;6.20;5.70;;;;;;;;;;5014799;28;20471;-76
2021/07/03 09:41:17;;;;;;;4.90;4.50;;;;;;;;;;5016595;28;20436;-79
2021/07/03 09:43:49;;;;;;;5.77;4.67;;;;;;;;;;5015807;28;20420;-76
2021/07/03 09:46:27;;;;;;;5.13;4.63;;;;;;;;;;5015400;28;20421;-76
2021/07/03 09:48:54;;;;;;;4.80;4.40;;;;;;;;;;5015417;28;20432;-76
2021/07/03 09:51:25;;;;;;;5.43;4.40;;;;;;;;;;5015669;28;20412;-76
2021/07/03 09:53:51;;;;;;;5.70;5.07;;;;;;;;;;5035252;28;20432;-79
2021/07/03 09:56:17;;;;;;;5.93;5.43;;;;;;;;;;5014973;28;20526;-74
2021/07/03 09:58:44;;;;;;;5.20;4.70;;;;;;;;;;5020797;28;20861;-76
2021/07/03 10:01:10;;;;;;;5.20;4.70;;;;;;;;;;5035443;28;20503;-75
2021/07/03 10:03:39;;;;;;;5.83;5.00;;;;;;;;;;5053144;28;20480;-75
2021/07/03 10:06:06;;;;;;;7.47;4.50;;;;;;;;;;5040674;28;20937;-76
2021/07/03 10:08:34;;;;;;;4.93;4.53;;;;;;;;;;5018075;28;20471;-77
2021/07/03 10:11:00;;;;;;;5.17;4.67;;;;;;;;;;5017247;28;20479;-74
2021/07/03 10:13:29;;;;;;;5.80;5.07;;;;;;;;;;5013838;28;20453;-77
2021/07/03 10:16:02;;;;;;;5.20;4.70;;;;;;;;;;5014962;28;20916;-75
2021/07/03 10:18:28;;;;;;;8.63;5.17;;;;;;;;;;4997169;28;20456;-76
2021/07/03 10:21:05;;;;;;;4.43;4.03;;;;;;;;;;5014636;28;20482;-77
2021/07/03 10:23:35;;;;;;;5.30;4.90;;;;;;;;;;5008988;28;20448;-76
2021/07/03 10:26:01;;;;;;;4.80;4.40;;;;;;;;;;5013783;28;20480;-77
2021/07/03 10:28:34;;;;;;;5.23;4.17;;;;;;;;;;5033357;28;20447;-79
2021/07/03 10:31:10;;;;;;;4.37;4.03;;;;;;;;;;5033124;28;20486;-79
2021/07/03 10:33:41;;;;;;;5.00;4.53;;;;;;;;;;5033405;28;20522;-77
2021/07/03 10:36:10;;;;;;;4.83;4.43;;;;;;;;;;5033470;28;20479;-78
2021/07/03 10:38:42;;;;;;;5.60;4.53;;;;;;;;;;5034111;28;20872;-78
2021/07/03 10:41:25;;;;;;;4.53;4.13;;;;;;;;;;5034282;28;20419;-75
2021/07/03 10:44:08;;;;;;;5.83;4.60;;;;;;;;;;5030182;28;20447;-77
2021/07/03 10:46:35;;;;;;;6.00;4.33;;;;;;;;;;5029680;28;20455;-77
2021/07/03 10:49:02;;;;;;;6.53;4.57;;;;;;;;;;5033867;28;20533;-78
2021/07/03 10:51:30;;;;;;;4.60;4.20;;;;;;;;;;5032700;28;20493;-77
2021/07/03 10:54:08;;;;;;;5.50;4.77;;;;;;;;;;5034451;28;20905;-79
2021/07/03 10:56:45;;;;;;;4.63;4.23;;;;;;;;;;5033004;28;20969;-77
2021/07/03 10:59:12;;;;;;;4.50;4.10;;;;;;;;;;5017267;28;20951;-75
2021/07/03 11:01:39;;;;;;;5.17;4.40;;;;;;;;;;5029378;28;20964;-75
2021/07/03 11:04:18;;;;;;;6.20;4.80;;;;;;;;;;5033728;28;20747;-76
2021/07/03 11:06:46;;;;;;;5.20;4.70;;;;;;;;;;5032317;28;20484;-76
2021/07/03 11:09:21;;;;;;;4.70;4.30;;;;;;;;;;5034081;28;20431;-74
2021/07/03 11:11:49;;;;;;;4.93;4.50;;;;;;;;;;5033563;28;20435;-75
2021/07/03 11:14:22;;;;;;;4.53;4.07;;;;;;;;;;5033808;28;20411;-77
2021/07/03 11:16:52;;;;;;;4.70;4.30;;;;;;;;;;5033260;28;20459;-77
2021/07/03 11:19:22;;;;;;;4.10;3.63;;;;;;;;;;5033063;28;20478;-75
2021/07/03 11:21:48;;;;;;;4.20;3.90;;;;;;;;;;5031727;28;20416;-75
2021/07/03 11:24:14;;;;;;;8.63;5.60;;;;;;;;;;5025437;28;20960;-77
2021/07/03 11:26:40;;;;;;;4.30;4.00;;;;;;;;;;5027833;28;20440;-77
2021/07/03 11:29:06;;;;;;;5.03;3.77;;;;;;;;;;5023048;28;20854;-76
2021/07/03 11:31:32;;;;;;;4.90;4.50;;;;;;;;;;5031967;28;20755;-73
2021/07/03 11:33:58;;;;;;;5.33;4.50;;;;;;;;;;5030102;28;20466;-75
2021/07/03 11:36:24;;;;;;;4.33;3.93;;;;;;;;;;5027204;28;20484;-76
2021/07/03 11:38:57;;;;;;;3.90;3.43;;;;;;;;;;5012837;28;20435;-74
2021/07/03 11:41:24;;;;;;;5.50;5.10;;;;;;;;;;5023692;28;20443;-77
2021/07/03 11:44:04;;;;;;;4.90;3.90;;;;;;;;;;5031103;28;20440;-75
2021/07/03 11:46:30;;;;;;;3.90;3.50;;;;;;;;;;5032204;28;20404;-76
2021/07/03 11:48:56;;;;;;;4.23;3.93;;;;;;;;;;5027633;28;20452;-76
2021/07/03 11:51:22;;;;;;;3.73;3.53;;;;;;;;;;5013752;28;20935;-76
2021/07/03 11:53:54;;;;;;;3.93;3.20;;;;;;;;;;5033141;28;20766;-75
2021/07/03 11:56:22;;;;;;;5.00;4.07;;;;;;;;;;5032963;28;20419;-76
2021/07/03 11:58:50;;;;;;;4.43;3.73;;;;;;;;;;5033228;28;20477;-76
2021/07/03 12:01:18;;;;;;;4.40;4.00;;;;;;;;;;5032778;28;20423;-77
2021/07/03 12:03:45;;;;;;;4.83;4.43;;;;;;;;;;5029142;28;21775;-74
2021/07/03 12:06:11;;;;;;;4.50;4.10;;;;;;;;;;5008040;28;20460;-76
2021/07/03 12:08:37;;;;;;;4.23;3.93;;;;;;;;;;5011657;28;20447;-76
2021/07/03 12:11:05;;;;;;;3.63;3.33;;;;;;;;;;5011700;28;20436;-75
2021/07/03 12:13:33;;;;;;;4.27;3.97;;;;;;;;;;5011954;28;20870;-74
2021/07/03 12:15:59;;;;;;;5.57;3.70;;;;;;;;;;5013167;28;20462;-76
2021/07/03 12:18:25;;;;;;;4.30;3.90;;;;;;;;;;5013098;28;20472;-74
2021/07/03 12:21:02;;;;;;;4.00;3.50;;;;;;;;;;5012381;28;20428;-75
2021/07/03 12:23:28;;;;;;;4.23;3.93;;;;;;;;;;5013370;28;20425;-75
2021/07/03 12:25:54;;;;;;;4.00;3.70;;;;;;;;;;5012751;28;20432;-76
2021/07/03 12:28:20;;;;;;;4.60;3.93;;;;;;;;;;5012885;28;20424;-77
2021/07/03 12:30:47;;;;;;;4.20;3.80;;;;;;;;;;5012723;28;20424;-75
2021/07/03 12:33:13;;;;;;;6.37;3.77;;;;;;;;;;5012844;28;20421;-74
2021/07/03 12:35:54;;;;;;;4.17;3.87;;;;;;;;;;5012331;28;20550;-77
2021/07/03 12:38:25;;;;;;;4.10;3.80;;;;;;;;;;5012960;28;20468;-75
2021/07/03 12:40:51;;;;;;;4.30;3.90;;;;;;;;;;5013076;28;20422;-75
2021/07/03 12:43:17;;;;;;;4.70;4.00;;;;;;;;;;5007278;28;21117;-76
2021/07/03 12:45:44;;;;;;;4.40;4.00;;;;;;;;;;5011202;28;20433;-78
2021/07/03 12:48:11;;;;;;;3.90;3.30;;;;;;;;;;5012330;28;20429;-76
2021/07/03 12:50:37;;;;;;;4.07;3.77;;;;;;;;;;5012073;28;20760;-75
2021/07/03 12:53:08;;;;;;;4.07;3.77;;;;;;;;;;5018322;28;20527;-77
2021/07/03 12:55:36;;;;;;;4.27;3.50;;;;;;;;;;5031164;28;20447;-75
2021/07/03 12:58:02;;;;;;;6.30;5.70;;;;;;;;;;5032497;28;20943;-76
2021/07/03 13:00:28;;;;;;;3.60;3.30;;;;;;;;;;5030722;28;20455;-74
2021/07/03 13:02:54;;;;;;;4.67;4.17;;;;;;;;;;5032028;28;20455;-78
2021/07/03 13:05:23;;;;;;;5.73;3.60;;;;;;;;;;5031570;28;20918;-78
2021/07/03 13:07:49;;;;;;;5.90;4.33;;;;;;;;;;5032406;28;20431;-76
2021/07/03 13:10:15;;;;;;;3.97;3.67;;;;;;;;;;5030834;28;20431;-75
2021/07/03 13:12:41;;;;;;;6.33;5.77;;;;;;;;;;5032386;28;20431;-79
2021/07/03 13:15:07;;;;;;;8.83;7.87;;;;;;;;;;5031418;28;20435;-75
2021/07/03 13:17:33;;;;;;;3.63;3.13;;;;;;;;;;5030516;28;20471;-77
2021/07/03 13:19:59;;;;;;;9.93;9.07;;;;;;;;;;5031179;28;20507;-76
2021/07/03 13:22:25;;;;;;;4.10;3.63;;;;;;;;;;5032499;28;20951;-75
2021/07/03 13:24:51;;;;;;;4.40;4.00;;;;;;;;;;5032259;28;20430;-76
2021/07/03 13:27:17;;;;;;;5.07;4.60;;;;;;;;;;5031916;28;20507;-76
2021/07/03 13:29:43;;;;;;;7.00;6.40;;;;;;;;;;5031549;28;20899;-76
2021/07/03 13:32:09;;;;;;;5.17;4.70;;;;;;;;;;5031116;28;20437;-77
2021/07/03 13:34:36;;;;;;;5.30;4.80;;;;;;;;;;5031983;28;20517;-77
2021/07/03 13:37:02;;;;;;;14.00;12.70;;;;;;;;;;5032410;28;20550;-81
2021/07/03 13:39:28;;;;;;;5.33;4.90;;;;;;;;;;5032397;28;20500;-74
2021/07/03 13:41:54;;;;;;;4.87;4.23;;;;;;;;;;5030891;28;20435;-74
2021/07/03 13:44:20;;;;;;;3.90;3.60;;;;;;;;;;5031436;28;20427;-77
2021/07/03 13:46:46;;;;;;;21.80;19.57;;;;;;;;;;5031575;28;20895;-80
2021/07/03 13:49:12;;;;;;;46.10;41.53;;;;;;;;;;5031930;28;20454;-76
2021/07/03 13:51:38;;;;;;;36.47;32.50;;;;;;;;;;5031085;28;20914;-76
2021/07/03 13:54:07;;;;;;;10.60;9.70;;;;;;;;;;5030354;28;20478;-77
2021/07/03 13:56:33;;;;;;;127.63;117.33;;;;;;;;;;5031453;28;20949;-76
2021/07/03 13:58:59;;;;;;;79.70;72.33;;;;;;;;;;5031228;28;20412;-75
2021/07/03 14:01:25;;;;;;;14.23;12.93;;;;;;;;;;5029821;28;20436;-75
2021/07/03 14:03:51;;;;;;;7.03;6.43;;;;;;;;;;5027089;28;20440;-76
2021/07/03 14:06:17;;;;;;;4.20;3.90;;;;;;;;;;5026850;28;20440;-76
2021/07/03 14:08:43;;;;;;;4.20;3.73;;;;;;;;;;5011980;28;20461;-77
2021/07/03 14:11:09;;;;;;;4.43;4.03;;;;;;;;;;5027027;28;20797;-76
2021/07/03 14:13:36;;;;;;;3.47;3.17;;;;;;;;;;5015016;28;20736;-79
2021/07/03 14:16:02;;;;;;;4.37;3.97;;;;;;;;;;5015668;28;20439;-79
2021/07/03 14:18:28;;;;;;;5.30;3.83;;;;;;;;;;5016068;28;20476;-81
2021/07/03 14:20:54;;;;;;;4.00;3.70;;;;;;;;;;5015242;28;20424;-79
2021/07/03 14:23:20;;;;;;;6.03;3.60;;;;;;;;;;5015817;28;20491;-77
2021/07/03 14:25:46;;;;;;;5.87;5.47;;;;;;;;;;5030728;28;20421;-81
2021/07/03 14:28:12;;;;;;;249.93;233.53;;;;;;;;;;5015179;28;20453;-80
2021/07/03 14:30:38;;;;;;;68.80;64.10;;;;;;;;;;5030557;28;20433;-75
2021/07/03 14:33:05;;;;;;;73.37;52.40;;;;;;;;;;5017759;28;20457;-83
2021/07/03 14:35:31;;;;;;;6.80;6.20;;;;;;;;;;5048069;28;20813;-81
2021/07/03 14:37:57;;;;;;;5.20;3.50;;;;;;;;;;5034039;28;20616;-73
2021/07/03 14:40:23;;;;;;;5.60;3.77;;;;;;;;;;5016029;28;20417;-79